Airfield :
LOGIN :

Register | Disclaimer

   EN    FR    IT 

 










Legend :    VFR   Marginal VFR   IFR   Intensive IFR   Very Intensive IFR
Visi :
Ceiling :
>= 8 km
>= 3000ft
5 to 8 km
1000 to 3000 ft
1500m to 5 km
500 to 1000 ft
800 to 1500m
200 to 500 ft
< 800m
< 200 ft
Symbols :   Thunderstorms  Fog  Heavy snow  Heavy precipitations  Wind > 20 kt
SIGMETs :     Misc.  Thunderstorms  Icing  Turbulence  Mountain Waves  Volcanic Ashes






- Airport Elevation : 741 ft
- IATA code : JKG


ESGJ - Jönköping

CURRENT METAR :
  • 212150Z 22003KT 8000 SCT009 BKN014 BKN017 08/08 Q1017

EXPIRED METARs :
  • 212120Z 18004KT 6000 -DZ BR BKN018 OVC026 08/08 Q1017
  • 212050Z 18003KT 8000 -DZ FEW009 SCT022 BKN028 08/08 Q1018 RERA REDZ
  • 212020Z 23002KT 9000 -DZ SCT007 BKN041 08/08 Q1018 REDZ
  • 211950Z 21003KT 180V240 9999 FEW006 BKN044 08/08 Q1018

TAF TAF ESGJ
Valid from the 21 at 21:00 until the 22 at 01:00 UTC


212030Z 2121/2201 21004KT 9999 FEW006 BKN045
PROB40 2121/2201 BKN006



MET'MAP, your aeronautical weather chart ! - Copyright ORBIFLY December 2007 - Disclaimer

ORBIFLY MET'MAP TEAM :

Programming & Development : Alexandra Zaïnal
Concept & Development : Baudouin d'Aumeries
Co-Development & Prog : Marc-Olivier Méhu
Technical & hardware support : Manuel Goepfert

Contact : metmap@orbifly.com




SOURCES & CREDITS :

   NOAA